createdAt,value
2018-01-16T00:00:02.379Z,86.3
2018-01-16T00:10:17.069Z,84.6
2018-01-16T00:20:32.358Z,89.5
2018-01-16T00:30:47.464Z,87.3
2018-01-16T00:41:01.613Z,91.1
2018-01-16T00:51:16.844Z,93
2018-01-16T01:01:30.548Z,97
2018-01-16T01:11:46.133Z,98.7
2018-01-16T01:21:59.970Z,100
2018-01-16T01:32:13.671Z,100
2018-01-16T01:42:28.040Z,100
2018-01-16T01:52:42.727Z,100
2018-01-16T02:02:57.512Z,100
2018-01-16T02:13:11.723Z,100
2018-01-16T02:23:27.060Z,100
2018-01-16T02:33:42.736Z,100
2018-01-16T02:43:58.028Z,100
2018-01-16T02:54:12.391Z,100
2018-01-16T03:04:27.593Z,100
2018-01-16T03:14:42.004Z,98.7
2018-01-16T03:24:57.560Z,99.1
2018-01-16T03:35:11.780Z,98.1
2018-01-16T03:45:26.805Z,99.4
2018-01-16T03:55:41.076Z,99.9
2018-01-16T04:05:55.410Z,100
2018-01-16T04:16:09.274Z,100
2018-01-16T04:26:23.569Z,100
2018-01-16T04:36:37.673Z,100
2018-01-16T04:46:52.417Z,100
2018-01-16T04:57:06.996Z,100
2018-01-16T05:07:22.635Z,100
2018-01-16T05:17:37.344Z,100
2018-01-16T05:27:51.477Z,100
2018-01-16T05:38:06.006Z,100
2018-01-16T05:48:20.674Z,100
2018-01-16T05:58:35.927Z,100
2018-01-16T06:08:50.234Z,100
2018-01-16T06:19:03.937Z,100
2018-01-16T06:29:17.774Z,100
2018-01-16T06:39:32.081Z,100
2018-01-16T06:49:46.753Z,100
2018-01-16T07:00:01.515Z,100
2018-01-16T07:10:16.737Z,100
2018-01-16T07:20:32.000Z,100
2018-01-16T07:30:45.908Z,100
2018-01-16T07:41:00.477Z,100
2018-01-16T07:51:14.387Z,100
2018-01-16T08:01:28.100Z,100
2018-01-16T08:11:43.568Z,100
2018-01-16T08:21:58.929Z,100
2018-01-16T08:32:12.847Z,100
2018-01-16T08:42:28.327Z,100
2018-01-16T08:52:42.432Z,100
2018-01-16T09:02:57.065Z,99.2
2018-01-16T09:13:10.531Z,98.5
2018-01-16T09:23:24.724Z,98
2018-01-16T09:33:39.080Z,96.8
2018-01-16T09:43:53.801Z,96
2018-01-16T09:54:09.355Z,95
2018-01-16T10:04:24.211Z,94.6
2018-01-16T10:14:38.325Z,93.9
2018-01-16T10:24:52.384Z,93.4
2018-01-16T10:35:07.227Z,95.4
2018-01-16T10:45:21.289Z,94.7
2018-01-16T10:55:35.312Z,95.4
2018-01-16T11:05:49.025Z,99.7
2018-01-16T11:16:04.333Z,100
2018-01-16T11:26:18.263Z,100
2018-01-16T11:36:33.541Z,100
2018-01-16T11:46:48.973Z,100
2018-01-16T11:57:03.131Z,100
2018-01-16T12:07:18.502Z,100
2018-01-16T12:17:33.971Z,100
2018-01-16T12:27:48.398Z,100
2018-01-16T12:38:02.945Z,100
2018-01-16T12:48:17.892Z,100
2018-01-16T12:58:32.431Z,100
2018-01-16T13:08:46.006Z,100
2018-01-16T13:19:00.975Z,100
2018-01-16T13:29:16.610Z,100
2018-01-16T13:39:30.605Z,100
2018-01-16T13:49:45.501Z,100
2018-01-16T14:00:00.578Z,100
2018-01-16T14:10:15.288Z,100
2018-01-16T14:20:29.965Z,100
2018-01-16T14:30:44.599Z,100
2018-01-16T14:40:59.187Z,100
2018-01-16T14:51:14.096Z,99.8
2018-01-16T15:01:28.957Z,100
2018-01-16T15:11:44.429Z,100
2018-01-16T15:22:00.015Z,100
2018-01-16T15:32:15.514Z,100
2018-01-16T15:42:31.126Z,100
2018-01-16T15:52:44.953Z,100
2018-01-16T16:02:58.985Z,100
2018-01-16T16:13:12.763Z,100
2018-01-16T16:23:28.100Z,100
2018-01-16T16:33:42.101Z,100
2018-01-16T16:43:56.469Z,100
2018-01-16T16:54:10.550Z,100
2018-01-16T17:04:25.594Z,100
2018-01-16T17:14:41.074Z,100
2018-01-16T17:24:55.106Z,100
2018-01-16T17:35:10.122Z,100
2018-01-16T17:45:25.607Z,99.8
2018-01-16T17:55:39.643Z,99.1
2018-01-16T18:05:54.569Z,99.3
2018-01-16T18:16:08.817Z,99.5
2018-01-16T18:26:22.725Z,100
2018-01-16T18:36:37.326Z,100
2018-01-16T18:46:51.181Z,100
2018-01-16T18:57:06.055Z,100
2018-01-16T19:07:20.788Z,100
2018-01-16T19:17:35.318Z,100
2018-01-16T19:27:49.883Z,100
2018-01-16T19:38:05.490Z,100
2018-01-16T19:48:20.587Z,100
2018-01-16T19:58:35.598Z,100
2018-01-16T20:08:49.440Z,99.8
2018-01-16T20:19:03.641Z,99.8
2018-01-16T20:29:17.375Z,100
2018-01-16T20:39:31.193Z,100
2018-01-16T20:49:45.867Z,100
2018-01-16T21:00:00.729Z,99.6
2018-01-16T21:10:16.162Z,99.8
2018-01-16T21:20:31.266Z,99.5
2018-01-16T21:30:46.410Z,100
2018-01-16T21:41:01.714Z,100
2018-01-16T21:51:16.560Z,100
2018-01-16T22:01:30.691Z,100
2018-01-16T22:11:44.456Z,100
2018-01-16T22:21:59.621Z,100
2018-01-16T22:32:14.619Z,100
2018-01-16T22:42:29.646Z,100
2018-01-16T22:52:44.530Z,100
2018-01-16T23:02:59.943Z,100
2018-01-16T23:13:14.258Z,100
2018-01-16T23:23:29.562Z,100
2018-01-16T23:33:43.664Z,98.7
2018-01-16T23:43:57.714Z,97.4
2018-01-16T23:54:12.965Z,96
